Cuyahoga County Airport Cleveland US
ICAO: KCGF
IATA: CGF
Category: Medium
Scheduled Services: No

Elevation: 879 ft
TransAlt. 18000 ft.

Airport Communications:
CLEVELAND APP/DEP:125.35
CTAF:118.5
GND/CLNC DEL:121.85
COUNTY TWR:118.5
UNICOM:122.95

KCGF Zoom In..

Runways:

(A) RW 06 length 5102 ft width 100 ft
---- / hdg 57

(B) RW 24 length 5102 ft width 100 ft
ILS 111.10 / hdg 237

Location; KCGF
Day. 31 / Time. 11.45 Zulu
* Altimeter: 30.28
* Temperature: 10° c. 50°f.
* Wind from: 010° Speed 07 kn.
Dewpoint: 04° c.
Visibility: 20 Statute Miles.
Clouds: Scattered 2800 ft.
Clouds: Broken 5000 ft.

KCGF 311145Z 01007KT 20SM SCT028 BKN050 10/04 A3028


Wind From 010°
Speed 07 kn.

 
 
jpsmedia worldairports.se 2020   terms of use